Overview Statistics Trail Chart Weather Telemetry Raw packets
 

This is the latest recevied weather packets stored in our database for station/object EA5JMY-10. If no packets are shown the sender has not sent any weather packets the latest 10 day(s).

<< 19 20 21 22 23 24 25 >>
Time Temp. Humidity Pressure Rain* Wind** Luminosity Snow
1788168292 37.22° C 34% 1020.6 hPa - - - -
1788167391 36.11° C 39% 1020.5 hPa - - - -
1788166491 35.56° C 41% 1020.3 hPa - - - -
1788165591 30° C 53% 1020.3 hPa - - - -
1788164691 40.56° C 30% 1020 hPa - - - -
1788163806 32.22° C 48% 1019.7 hPa - - - -
1788162891 30° C 45% 1019.6 hPa - - - -
1788161991 30.56° C 42% 1019.5 hPa - - - -
1788161091 31.67° C 33% 1019.2 hPa - - - -
1788160190 32.78° C 30% 1019.1 hPa - - - -
1788159290 31.67° C 31% 1019 hPa - - - -
1788158390 35.56° C 27% 1018.8 hPa - - - -
1788157490 29.44° C 36% 1018.7 hPa - - - -
1788156590 28.89° C 40% 1018.4 hPa - - - -
1788155690 26.67° C 45% 1018.3 hPa - - - -
1788154790 23.33° C 57% 1018.2 hPa - - - -
1788153890 22.78° C 61% 1018.1 hPa - - - -
1788152989 22.22° C 65% 1018 hPa - - - -
1788152089 23.33° C 61% 1017.9 hPa - - - -
1788151189 22.78° C 70% 1017.9 hPa - - - -
1788150289 23.33° C 69% 1018 hPa - - - -
1788149389 23.89° C 70% 1018 hPa - - - -
1788148489 22.78° C 72% 1018.1 hPa - - - -
1788147589 22.78° C 72% 1017.9 hPa - - - -
1788146689 22.78° C 71% 1017.9 hPa - - - -

* Rain since midnight (hover to see other rain measurements)
** Current wind speed in m/s (hover to see current wind gust speed)